Time;durP1;ratioP1;P1;durP2;ratioP2;P2;SDS_P1;SDS_P2;PMS_P1;PMS_P2;Temp;Humidity;BMP_temperature;BMP_pressure;BME280_temperature;BME280_humidity;BME280_pressure;Samples;Min_cycle;Max_cycle;Signal;HPM_P1;HPM_P2
2022/11/06 00:00:53;;;;;;;11.48;6.38;;;;;;;7.86;82.00;101318.69;5028415;28;20049;-70
2022/11/06 00:03:19;;;;;;;12.50;5.65;;;;;;;7.92;81.98;101321.09;5031686;28;20053;-70
2022/11/06 00:08:33;;;;;;;11.38;5.68;;;;;;;8.20;80.46;101319.34;5017537;28;20052;-70
2022/11/06 00:11:00;;;;;;;10.55;5.60;;;;;;;7.76;82.41;101325.97;5027368;28;20044;-70
2022/11/06 00:13:27;;;;;;;12.18;6.10;;;;;;;7.69;83.30;101327.03;5028366;28;20037;-70
2022/11/06 00:15:53;;;;;;;11.82;5.75;;;;;;;7.36;84.44;101310.63;5016847;28;20102;-70
2022/11/06 00:18:20;;;;;;;11.32;5.68;;;;;;;7.40;84.85;101325.28;5026894;28;20041;-70
2022/11/06 00:20:46;;;;;;;9.52;5.85;;;;;;;7.30;85.21;101323.88;5027817;28;20512;-70
2022/11/06 00:23:13;;;;;;;12.82;5.30;;;;;;;7.35;85.53;101324.59;5017353;28;20564;-70
2022/11/06 00:25:41;;;;;;;12.90;5.18;;;;;;;7.69;84.10;101314.84;5027228;28;20044;-70
2022/11/06 00:28:08;;;;;;;8.32;5.07;;;;;;;7.68;83.31;101318.38;5028041;28;20464;-70
2022/11/06 00:30:35;;;;;;;13.13;5.88;;;;;;;7.44;85.15;101311.25;5018061;28;20102;-70
2022/11/06 00:33:01;;;;;;;13.15;5.80;;;;;;;7.53;84.16;101315.38;5027048;28;20099;-70
2022/11/06 00:35:27;;;;;;;10.55;5.20;;;;;;;7.52;84.72;101316.25;5027877;28;20052;-70
2022/11/06 00:37:54;;;;;;;11.00;5.60;;;;;;;7.54;84.56;101307.47;5019409;28;20056;-70
2022/11/06 00:40:21;;;;;;;9.15;5.45;;;;;;;7.69;83.51;101300.94;5027717;28;20041;-70
2022/11/06 00:42:53;;;;;;;8.90;5.18;;;;;;;7.51;84.33;101299.75;5029324;28;20052;-70
2022/11/06 00:45:20;;;;;;;11.95;5.13;;;;;;;8.02;82.84;101294.66;5024277;28;20053;-70
2022/11/06 00:47:46;;;;;;;13.60;5.90;;;;;;;7.86;82.30;101303.03;5026714;28;20048;-70
2022/11/06 00:50:12;;;;;;;12.88;5.90;;;;;;;7.55;84.38;101297.91;5027239;28;20045;-70
2022/11/06 00:52:39;;;;;;;12.65;5.53;;;;;;;7.06;86.77;101293.28;5017139;28;20067;-70
2022/11/06 00:55:06;;;;;;;10.98;5.03;;;;;;;7.22;86.81;101300.59;5026392;28;20543;-70
2022/11/06 00:57:32;;;;;;;13.82;5.78;;;;;;;7.29;86.16;101285.63;5027474;28;20041;-70
2022/11/06 01:00:00;;;;;;;16.75;5.43;;;;;;;7.35;86.59;101288.06;5017431;28;20056;-70
2022/11/06 01:02:26;;;;;;;10.43;5.45;;;;;;;7.31;86.66;101289.91;5035276;28;20053;-70
2022/11/06 01:04:53;;;;;;;12.43;5.47;;;;;;;7.35;86.05;101293.28;5045029;28;20052;-70
2022/11/06 01:07:19;;;;;;;12.77;5.85;;;;;;;7.43;85.23;101288.69;5043031;28;20053;-70
2022/11/06 01:09:46;;;;;;;11.43;5.28;;;;;;;7.49;85.00;101285.03;5043517;28;20049;-70
2022/11/06 01:12:12;;;;;;;9.55;5.20;;;;;;;7.30;85.90;101289.94;5044424;28;20052;-70
2022/11/06 01:14:40;;;;;;;11.80;5.07;;;;;;;7.38;85.73;101282.75;5043295;28;20049;-70
2022/11/06 01:17:07;;;;;;;8.57;4.45;;;;;;;7.71;83.66;101286.94;5043709;28;20451;-70
2022/11/06 01:19:37;;;;;;;8.88;4.72;;;;;;;7.77;84.03;101278.06;5045751;28;20045;-70
2022/11/06 01:22:03;;;;;;;8.43;5.07;;;;;;;7.77;83.47;101270.22;5043792;28;20048;-70
2022/11/06 01:24:30;;;;;;;10.75;5.50;;;;;;;7.51;84.35;101273.66;5043262;28;20040;-70
2022/11/06 01:26:57;;;;;;;10.60;5.35;;;;;;;7.53;84.66;101279.69;5047801;28;20098;-70
2022/11/06 01:29:23;;;;;;;10.65;4.55;;;;;;;7.55;84.80;101277.00;5048116;28;20041;-70
2022/11/06 01:31:50;;;;;;;16.45;5.22;;;;;;;7.04;87.24;101284.63;5047057;28;20516;-71
2022/11/06 01:34:18;;;;;;;9.27;4.93;;;;;;;7.20;86.78;101272.88;5047447;28;20444;-70
2022/11/06 01:36:45;;;;;;;11.48;4.85;;;;;;;7.67;84.96;101277.50;5047172;28;20566;-70
2022/11/06 01:39:13;;;;;;;8.85;5.28;;;;;;;7.53;84.96;101264.03;5048915;28;20044;-70
2022/11/06 01:41:42;;;;;;;9.88;5.13;;;;;;;7.37;85.78;101273.22;5048010;28;20053;-70
2022/11/06 01:44:42;;;;;;;9.57;5.43;;;;;;;6.97;87.79;101270.06;5048700;28;20049;-70
2022/11/06 01:47:23;;;;;;;10.43;4.55;;;;;;;7.32;86.37;101262.06;5047586;28;20067;-71
2022/11/06 01:49:53;;;;;;;14.05;5.70;;;;;;;7.51;85.47;101270.19;5036570;28;20053;-70
2022/11/06 01:52:21;;;;;;;9.43;5.53;;;;;;;7.16;86.84;101258.22;5053264;28;20128;-70
2022/11/06 01:54:53;;;;;;;13.82;5.57;;;;;;;7.02;87.59;101265.59;5041595;28;20056;-70
2022/11/06 01:57:20;;;;;;;10.83;5.50;;;;;;;7.16;87.09;101255.59;5047530;28;20539;-70
2022/11/06 01:59:47;;;;;;;16.33;5.90;;;;;;;6.94;88.04;101264.94;5047849;28;20287;-71
2022/11/06 02:02:16;;;;;;;15.43;6.20;;;;;;;6.91;88.93;101252.00;5047878;28;20048;-70
2022/11/06 02:04:44;;;;;;;12.45;5.57;;;;;;;7.27;86.78;101256.13;5048614;28;20045;-70
2022/11/06 02:07:12;;;;;;;11.68;6.15;;;;;;;7.02;88.35;101261.19;5019584;28;20424;-70
2022/11/06 02:09:39;;;;;;;13.63;5.93;;;;;;;7.13;87.61;101256.53;5029668;28;20044;-70
2022/11/06 02:12:20;;;;;;;20.10;6.57;;;;;;;6.92;88.03;101251.09;5030822;28;20049;-70
2022/11/06 02:15:01;;;;;;;9.38;5.50;;;;;;;6.84;89.30;101252.16;5029562;28;20049;-70
2022/11/06 02:17:40;;;;;;;11.50;6.38;;;;;;;6.89;88.74;101249.44;5019756;28;20449;-70
2022/11/06 02:20:13;;;;;;;14.63;6.38;;;;;;;7.05;88.75;101249.84;5029851;28;20063;-70
2022/11/06 02:23:02;;;;;;;16.52;6.72;;;;;;;7.05;88.06;101239.41;5029524;28;20123;-70
2022/11/06 02:25:41;;;;;;;13.25;6.22;;;;;;;6.67;90.38;101249.19;5029369;28;20526;-70
2022/11/06 02:28:14;;;;;;;14.63;6.57;;;;;;;6.69;90.01;101249.97;5019605;28;20056;-70
2022/11/06 02:30:46;;;;;;;15.45;6.50;;;;;;;6.59;91.21;101243.31;5029837;28;20044;-70
2022/11/06 02:33:16;;;;;;;13.17;6.83;;;;;;;6.70;89.90;101256.91;5020136;28;20512;-68
2022/11/06 02:35:48;;;;;;;10.07;5.82;;;;;;;6.65;90.96;101250.94;5030366;28;20051;-70
2022/11/06 02:38:18;;;;;;;10.77;6.50;;;;;;;7.14;88.37;101239.13;5028200;28;20131;-70
2022/11/06 02:40:49;;;;;;;10.88;6.45;;;;;;;6.98;88.47;101246.56;5018880;28;20523;-70
2022/11/06 02:43:19;;;;;;;14.00;6.22;;;;;;;7.32;85.67;101241.19;5028461;28;20098;-70
2022/11/06 02:45:51;;;;;;;17.15;6.53;;;;;;;7.02;87.29;101247.34;5026409;28;20076;-70
2022/11/06 02:48:21;;;;;;;17.10;6.68;;;;;;;7.30;86.45;101232.56;5029274;28;20102;-70
2022/11/06 02:50:50;;;;;;;15.57;6.65;;;;;;;7.09;87.29;101228.00;5030022;28;20592;-70
2022/11/06 02:53:20;;;;;;;13.82;6.45;;;;;;;6.77;89.83;101229.78;5019362;28;20048;-68
2022/11/06 02:55:49;;;;;;;15.80;7.03;;;;;;;6.66;90.74;101224.00;5029034;28;20045;-68
2022/11/06 02:58:20;;;;;;;17.75;7.47;;;;;;;6.94;88.85;101226.69;5027557;28;20048;-68
2022/11/06 03:00:53;;;;;;;15.48;7.00;;;;;;;6.75;89.77;101228.97;5016907;28;20104;-68
2022/11/06 03:03:23;;;;;;;16.20;7.40;;;;;;;6.70;90.49;101240.41;5024232;28;20033;-70
2022/11/06 03:05:54;;;;;;;15.68;7.68;;;;;;;6.70;90.92;101235.19;5019549;28;20056;-70
2022/11/06 03:08:28;;;;;;;14.27;6.95;;;;;;;6.85;90.61;101235.63;5029449;28;20045;-71
2022/11/06 03:11:09;;;;;;;16.98;7.55;;;;;;;6.81;90.40;101235.75;5010261;28;20108;-68
2022/11/06 03:13:48;;;;;;;14.48;6.82;;;;;;;6.75;91.51;101235.94;5022144;28;20057;-68
2022/11/06 03:16:23;;;;;;;10.95;5.72;;;;;;;6.99;89.90;101236.97;5012905;28;20053;-68
2022/11/06 03:18:58;;;;;;;15.15;7.07;;;;;;;7.32;89.52;101244.66;5027903;28;20041;-68
2022/11/06 03:21:30;;;;;;;17.00;7.63;;;;;;;7.43;87.62;101238.28;5029318;28;20044;-68
2022/11/06 03:24:03;;;;;;;12.27;6.57;;;;;;;7.17;88.98;101232.06;5028314;28;20456;-68
2022/11/06 03:26:35;;;;;;;18.27;8.02;;;;;;;7.43;88.26;101220.84;5028144;28;20045;-68
2022/11/06 03:29:09;;;;;;;;;;;;;;;7.42;88.21;101224.38;5018596;28;20068;-68
2022/11/06 03:31:39;;;;;;;15.27;6.47;;;;;;;7.55;87.82;101230.91;5029351;28;20372;-68
2022/11/06 03:34:10;;;;;;;15.32;7.32;;;;;;;7.26;89.03;101213.53;5020368;28;20440;-68
2022/11/06 03:36:41;;;;;;;17.92;6.32;;;;;;;7.02;90.55;101214.25;5028803;28;20045;-69
2022/11/06 03:39:13;;;;;;;14.25;7.13;;;;;;;7.10;90.88;101221.88;5028142;28;20102;-69
2022/11/06 03:41:46;;;;;;;17.05;6.65;;;;;;;7.01;91.40;101219.53;5019042;28;20710;-68
2022/11/06 03:44:17;;;;;;;16.48;7.47;;;;;;;7.28;90.13;101211.72;5028723;28;20051;-68
2022/11/06 03:46:47;;;;;;;17.95;8.07;;;;;;;6.90;91.27;101205.97;5017337;28;20049;-68
2022/11/06 03:49:21;;;;;;;12.15;6.72;;;;;;;6.88;92.03;101200.78;5027190;28;20048;-69
2022/11/06 03:51:52;;;;;;;11.93;6.35;;;;;;;6.88;92.61;101197.31;5027441;28;20120;-68
2022/11/06 03:54:23;;;;;;;14.82;7.60;;;;;;;7.03;91.95;101195.13;5017790;28;20492;-68
2022/11/06 03:56:54;;;;;;;16.08;8.38;;;;;;;7.00;92.20;101203.03;5027513;28;20497;-68
2022/11/06 03:59:24;;;;;;;18.60;7.35;;;;;;;6.95;92.93;101191.88;5018189;28;20524;-68
2022/11/06 04:01:54;;;;;;;12.30;6.25;;;;;;;6.99;93.29;101197.84;5029071;28;20128;-68
2022/11/06 04:04:27;;;;;;;15.02;7.07;;;;;;;7.04;92.90;101203.81;5029003;28;20532;-68
2022/11/06 04:06:56;;;;;;;;;;;;;;;7.14;92.48;101189.59;5018664;28;20045;-68
2022/11/06 04:15:02;;;;;;;17.73;7.32;;;;;;;7.03;93.00;101200.34;5028266;28;20574;-68
2022/11/06 04:17:29;;;;;;;15.50;7.35;;;;;;;6.78;94.48;101210.63;5028796;28;20474;-68
2022/11/06 04:20:00;;;;;;;14.48;7.75;;;;;;;6.87;94.17;101199.09;5026714;28;20060;-69
2022/11/06 04:22:44;;;;;;;12.68;7.30;;;;;;;7.03;93.27;101199.47;5017558;28;20421;-69
2022/11/06 04:28:27;;;;;;;15.48;7.35;;;;;;;6.85;94.44;101190.44;5021591;28;20072;-70
2022/11/06 04:31:06;;;;;;;10.38;6.40;;;;;;;6.82;94.41;101187.94;5016708;28;20056;-70
2022/11/06 04:33:43;;;;;;;13.98;6.35;;;;;;;6.94;94.41;101185.00;5025891;28;20049;-70
2022/11/06 04:36:20;;;;;;;20.33;7.75;;;;;;;6.85;94.67;101190.44;5018400;28;20045;-70
2022/11/06 04:38:56;;;;;;;13.07;7.13;;;;;;;7.04;93.91;101185.56;5026788;28;20045;-70
2022/11/06 04:41:33;;;;;;;11.85;6.60;;;;;;;7.08;93.94;101185.41;5017054;28;20049;-70
2022/11/06 04:44:04;;;;;;;12.82;6.72;;;;;;;6.98;93.87;101183.13;5026122;28;20055;-71
2022/11/06 04:46:36;;;;;;;18.10;7.85;;;;;;;6.95;93.88;101180.63;5027588;28;20136;-70
2022/11/06 04:49:06;;;;;;;12.73;7.13;;;;;;;7.03;94.07;101183.84;5026797;28;20037;-70
2022/11/06 04:51:35;;;;;;;15.95;6.90;;;;;;;7.13;93.16;101180.91;5027139;28;20048;-70
2022/11/06 04:54:02;;;;;;;17.40;8.35;;;;;;;7.14;93.24;101171.31;5017707;28;20552;-70
2022/11/06 04:56:31;;;;;;;13.02;6.53;;;;;;;7.13;92.85;101170.47;5026489;28;20436;-70
2022/11/06 04:58:58;;;;;;;13.77;7.63;;;;;;;7.49;90.39;101172.84;5027269;28;20527;-70
2022/11/06 05:01:25;;;;;;;12.05;6.43;;;;;;;6.93;92.55;101166.78;5017213;28;20048;-71
2022/11/06 05:03:52;;;;;;;11.68;6.55;;;;;;;6.88;93.48;101168.66;5043924;28;20045;-70
2022/11/06 05:06:19;;;;;;;17.27;8.20;;;;;;;7.24;91.71;101160.56;5046009;28;20072;-70
2022/11/06 05:08:46;;;;;;;15.20;7.85;;;;;;;7.26;90.71;101161.38;5043393;28;20466;-70
2022/11/06 05:11:12;;;;;;;14.80;7.78;;;;;;;7.12;91.45;101166.19;5045401;28;20060;-70
2022/11/06 05:13:39;;;;;;;17.67;8.32;;;;;;;6.95;92.20;101165.81;5045525;28;20056;-70
2022/11/06 05:16:06;;;;;;;15.10;6.50;;;;;;;6.98;91.75;101167.50;5044028;28;20048;-70
2022/11/06 05:18:32;;;;;;;12.80;7.60;;;;;;;7.14;91.46;101160.91;5044600;28;20052;-70
2022/11/06 05:23:44;;;;;;;14.57;7.55;;;;;;;7.23;90.66;101160.63;5044259;28;20127;-70
2022/11/06 05:26:11;;;;;;;14.35;7.15;;;;;;;7.08;89.79;101146.31;5036731;28;20076;-70
2022/11/06 05:28:38;;;;;;;14.38;7.70;;;;;;;7.17;89.99;101145.16;5043133;28;20041;-70
2022/11/06 05:31:05;;;;;;;13.60;7.57;;;;;;;6.86;91.72;101155.69;5044195;28;20697;-70
2022/11/06 05:33:32;;;;;;;15.93;7.72;;;;;;;7.05;91.25;101153.38;5043892;28;20041;-70
2022/11/06 05:36:02;;;;;;;16.17;7.53;;;;;;;7.04;91.15;101149.06;5044738;28;20045;-70
2022/11/06 05:38:29;;;;;;;13.88;7.68;;;;;;;6.92;91.55;101146.81;5035889;28;20047;-70
2022/11/06 05:40:55;;;;;;;15.02;8.10;;;;;;;7.20;88.66;101151.16;5044441;28;20726;-70
2022/11/06 05:43:22;;;;;;;15.65;7.70;;;;;;;7.04;89.43;101143.84;5042923;28;20049;-70
2022/11/06 05:45:48;;;;;;;14.50;7.63;;;;;;;6.82;90.12;101154.91;5044293;28;20394;-70
2022/11/06 05:48:15;;;;;;;13.77;8.45;;;;;;;6.88;90.64;101153.88;5042484;28;20049;-70
2022/11/06 05:50:41;;;;;;;16.27;7.80;;;;;;;6.94;90.47;101160.66;5042541;28;20412;-70
2022/11/06 05:53:09;;;;;;;18.38;7.65;;;;;;;7.06;89.29;101152.47;5044762;28;20048;-70
2022/11/06 05:55:36;;;;;;;15.00;7.32;;;;;;;6.57;91.30;101163.50;5043779;28;20492;-69
2022/11/06 05:58:02;;;;;;;15.95;7.45;;;;;;;6.97;90.36;101165.78;5041594;28;20493;-69
2022/11/06 06:00:29;;;;;;;11.63;6.72;;;;;;;6.92;89.86;101165.91;5043316;28;20457;-70
2022/11/06 06:02:55;;;;;;;13.63;6.53;;;;;;;7.02;87.95;101176.94;5043401;28;20053;-70
2022/11/06 06:05:22;;;;;;;13.18;7.07;;;;;;;7.25;87.78;101177.94;5044262;28;20041;-69
2022/11/06 06:07:48;;;;;;;17.92;8.38;;;;;;;7.24;86.99;101167.56;5044365;28;20041;-70
2022/11/06 06:10:16;;;;;;;17.52;8.10;;;;;;;7.50;84.80;101170.16;5043400;28;20049;-70
2022/11/06 06:12:43;;;;;;;16.00;8.15;;;;;;;6.86;87.00;101176.53;5043322;28;20052;-70
2022/11/06 06:15:10;;;;;;;19.05;8.18;;;;;;;6.55;89.89;101163.53;5048441;28;20045;-70
2022/11/06 06:17:36;;;;;;;17.52;7.18;;;;;;;5.97;93.19;101169.47;5053610;28;20040;-70
2022/11/06 06:20:04;;;;;;;15.75;7.65;;;;;;;6.24;92.72;101167.88;5048451;28;20501;-70
2022/11/06 06:22:31;;;;;;;17.38;8.52;;;;;;;6.35;92.58;101161.50;5050986;28;20059;-70
2022/11/06 06:24:57;;;;;;;14.48;7.32;;;;;;;6.28;93.65;101166.91;5048686;28;20053;-70
2022/11/06 06:27:26;;;;;;;11.57;7.65;;;;;;;5.89;95.54;101161.00;5056024;28;20044;-70
2022/11/06 06:29:52;;;;;;;13.05;7.55;;;;;;;6.07;95.70;101154.44;5051136;28;20049;-70
2022/11/06 06:32:19;;;;;;;14.35;6.90;;;;;;;6.02;95.14;101159.81;5049317;28;20049;-70
2022/11/06 06:34:45;;;;;;;13.65;6.65;;;;;;;6.17;94.43;101166.34;5048730;28;20048;-71
2022/11/06 06:37:12;;;;;;;16.38;6.95;;;;;;;6.15;94.59;101170.72;5048490;28;20048;-70
2022/11/06 06:39:38;;;;;;;17.20;8.07;;;;;;;6.17;94.57;101179.38;5048606;28;20041;-70
2022/11/06 06:42:05;;;;;;;21.02;7.50;;;;;;;5.91;95.89;101179.19;5048207;28;20045;-71
2022/11/06 06:44:33;;;;;;;13.30;7.10;;;;;;;6.19;94.59;101188.84;5049410;28;20489;-71
2022/11/06 06:46:59;;;;;;;14.63;7.43;;;;;;;6.21;94.70;101180.97;5048755;28;20229;-71
2022/11/06 06:49:25;;;;;;;16.40;8.15;;;;;;;6.45;93.45;101177.72;5047703;28;20067;-71
2022/11/06 06:51:52;;;;;;;15.85;8.43;;;;;;;6.24;94.35;101170.50;5049245;28;20049;-71
2022/11/06 06:54:18;;;;;;;11.93;7.47;;;;;;;6.38;94.46;101167.50;5048052;28;20041;-71
2022/11/06 06:56:45;;;;;;;14.73;7.82;;;;;;;6.42;93.65;101180.41;5047441;28;20060;-71
2022/11/06 06:59:11;;;;;;;15.23;7.30;;;;;;;6.21;95.90;101178.38;5047430;28;20503;-71
2022/11/06 07:01:39;;;;;;;15.13;7.55;;;;;;;6.34;94.24;101177.16;5048893;28;20420;-71
2022/11/06 07:04:05;;;;;;;14.88;7.30;;;;;;;6.30;94.84;101165.09;5048093;28;20045;-71
2022/11/06 07:06:32;;;;;;;11.70;7.38;;;;;;;6.47;94.13;101168.09;5048383;28;20053;-72
2022/11/06 07:08:58;;;;;;;16.30;8.25;;;;;;;6.99;91.43;101158.75;5048220;28;20535;-71
2022/11/06 07:11:25;;;;;;;15.55;7.55;;;;;;;6.67;92.95;101152.75;5047622;28;20052;-71
2022/11/06 07:13:51;;;;;;;16.77;7.55;;;;;;;6.67;93.25;101159.72;5047655;28;20076;-72
2022/11/06 07:16:20;;;;;;;15.65;8.25;;;;;;;6.68;94.09;101151.00;5048005;28;20056;-72
2022/11/06 07:18:47;;;;;;;15.25;7.80;;;;;;;7.02;92.44;101151.69;5049199;28;20063;-72
2022/11/06 07:21:14;;;;;;;14.95;6.78;;;;;;;7.26;91.02;101156.16;5047081;28;20469;-72
2022/11/06 07:23:41;;;;;;;22.95;7.60;;;;;;;7.47;89.71;101157.22;5046008;28;20057;-72
2022/11/06 07:26:07;;;;;;;14.68;7.53;;;;;;;7.86;88.04;101156.81;5048326;28;20044;-72
2022/11/06 07:28:34;;;;;;;14.75;6.00;;;;;;;7.62;87.82;101150.66;5047061;28;20064;-73
2022/11/06 07:31:02;;;;;;;10.68;6.15;;;;;;;8.44;84.48;101166.13;5046945;28;20052;-72
2022/11/06 07:33:29;;;;;;;8.50;5.78;;;;;;;8.61;82.98;101163.75;5047085;28;20488;-71
2022/11/06 07:36:02;;;;;;;11.68;6.30;;;;;;;9.02;81.82;101154.31;5047403;28;20071;-71
2022/11/06 07:38:28;;;;;;;11.10;6.25;;;;;;;9.26;79.38;101150.78;5046815;28;20048;-72
2022/11/06 07:40:55;;;;;;;9.52;5.57;;;;;;;10.08;76.57;101149.97;5045831;28;20518;-72
2022/11/06 07:43:23;;;;;;;12.13;5.57;;;;;;;9.71;77.71;101148.91;5047322;28;20489;-71
2022/11/06 07:45:50;;;;;;;13.10;5.93;;;;;;;9.39;78.58;101159.81;5046364;28;20127;-71
2022/11/06 07:48:16;;;;;;;12.48;5.57;;;;;;;8.78;80.85;101163.97;5046076;28;20127;-71
2022/11/06 07:50:43;;;;;;;12.77;5.88;;;;;;;8.75;81.96;101167.56;5047916;28;20041;-71
2022/11/06 07:53:11;;;;;;;11.32;6.53;;;;;;;8.55;82.23;101167.44;5051714;28;20045;-71
2022/11/06 07:55:37;;;;;;;13.18;6.35;;;;;;;8.19;84.05;101163.50;5045170;28;20040;-71
2022/11/06 07:58:03;;;;;;;14.43;6.57;;;;;;;8.61;83.69;101161.16;5047339;28;20489;-72
2022/11/06 08:00:30;;;;;;;9.35;5.95;;;;;;;9.67;79.58;101152.56;5047868;28;20045;-72
2022/11/06 08:02:56;;;;;;;14.15;6.28;;;;;;;9.75;77.86;101147.84;5046267;28;20044;-72
2022/11/06 08:05:23;;;;;;;11.75;6.00;;;;;;;9.98;78.70;101156.50;5048283;28;20625;-73
2022/11/06 08:07:49;;;;;;;15.85;5.80;;;;;;;10.50;74.77;101144.63;5045442;28;20580;-72
2022/11/06 08:10:17;;;;;;;14.15;5.68;;;;;;;10.99;73.53;101145.84;5045080;28;20408;-72
2022/11/06 08:12:44;;;;;;;11.55;5.82;;;;;;;11.10;71.54;101147.06;5047438;28;20532;-73
2022/11/06 08:15:12;;;;;;;8.55;5.45;;;;;;;11.41;71.44;101148.22;5054365;28;20051;-78
2022/11/06 08:17:38;;;;;;;12.88;5.68;;;;;;;10.93;72.12;101162.75;5018842;28;20120;-73
2022/11/06 08:20:06;;;;;;;9.93;5.65;;;;;;;11.15;72.46;101154.72;5028503;28;20079;-71
2022/11/06 08:22:32;;;;;;;11.98;5.60;;;;;;;11.01;72.12;101154.53;5030053;28;20048;-73
2022/11/06 08:24:59;;;;;;;9.68;5.30;;;;;;;10.29;75.04;101159.56;5022029;28;20049;-72
2022/11/06 08:27:27;;;;;;;8.23;4.57;;;;;;;10.14;75.58;101165.41;5029137;28;20064;-72
2022/11/06 08:29:54;;;;;;;10.57;5.40;;;;;;;10.80;75.21;101143.25;5026941;28;20519;-72
2022/11/06 08:32:20;;;;;;;11.32;5.40;;;;;;;11.68;70.65;101141.59;5018439;28;20045;-73
2022/11/06 08:34:47;;;;;;;8.73;5.57;;;;;;;12.04;68.99;101136.31;5028038;28;20492;-73
2022/11/06 08:37:13;;;;;;;12.25;4.55;;;;;;;11.26;71.80;101148.97;5027358;28;20052;-73
2022/11/06 08:39:40;;;;;;;11.75;6.28;;;;;;;11.34;71.81;101149.44;5025023;28;20060;-73
2022/11/06 08:42:07;;;;;;;8.90;4.88;;;;;;;11.15;72.37;101133.72;5027793;28;20053;-73
2022/11/06 08:44:34;;;;;;;8.07;4.95;;;;;;;11.85;69.87;101136.41;5027623;28;20059;-72
2022/11/06 08:47:01;;;;;;;9.88;5.07;;;;;;;10.96;72.93;101125.88;5024202;28;20052;-73
2022/11/06 08:49:27;;;;;;;9.90;5.28;;;;;;;11.27;72.04;101127.88;5027034;28;20155;-73
2022/11/06 08:51:54;;;;;;;8.35;4.70;;;;;;;11.32;71.75;101130.28;5026175;28;20496;-73
2022/11/06 08:54:20;;;;;;;9.55;4.60;;;;;;;11.98;71.00;101134.84;5027318;28;20045;-73
2022/11/06 08:56:47;;;;;;;7.70;4.88;;;;;;;12.64;68.66;101125.16;5019334;28;20041;-73
2022/11/06 08:59:14;;;;;;;8.10;4.85;;;;;;;12.96;66.48;101119.94;5026338;28;20045;-73
2022/11/06 09:01:41;;;;;;;7.95;4.80;;;;;;;12.97;66.51;101121.66;5027662;28;20051;-73
2022/11/06 09:04:08;;;;;;;11.75;5.32;;;;;;;13.58;64.67;101124.31;5019613;28;20041;-73
2022/11/06 09:06:36;;;;;;;6.35;4.20;;;;;;;12.81;64.86;101118.16;5027732;28;20040;-73
2022/11/06 09:09:02;;;;;;;10.73;5.15;;;;;;;12.54;68.65;101108.19;5021468;28;20779;-72
2022/11/06 09:11:29;;;;;;;10.00;4.80;;;;;;;12.61;67.41;101109.56;5021961;28;20409;-72
2022/11/06 09:13:55;;;;;;;10.35;4.22;;;;;;;13.03;67.44;101108.13;5026778;28;20489;-72
2022/11/06 09:16:23;;;;;;;11.02;4.55;;;;;;;12.98;65.53;101108.38;5027072;28;20041;-71
2022/11/06 09:18:51;;;;;;;20.52;5.15;;;;;;;13.16;66.58;101096.84;5017128;28;20076;-72
2022/11/06 09:21:17;;;;;;;9.25;4.20;;;;;;;13.49;64.33;101096.69;5026644;28;20493;-72
2022/11/06 09:23:44;;;;;;;7.88;4.43;;;;;;;14.18;63.20;101104.00;5026440;28;20053;-72
2022/11/06 09:26:11;;;;;;;8.98;4.55;;;;;;;14.50;62.22;101099.41;5019983;28;20045;-72
2022/11/06 09:28:37;;;;;;;9.65;4.38;;;;;;;13.57;63.77;101104.16;5009851;28;20041;-73
2022/11/06 09:31:04;;;;;;;5.28;3.95;;;;;;;14.52;62.75;101098.38;5026283;28;20132;-72
2022/11/06 09:33:31;;;;;;;10.05;4.18;;;;;;;14.71;60.77;101095.44;5015766;28;20064;-72
2022/11/06 09:35:59;;;;;;;7.05;3.65;;;;;;;13.26;63.55;101102.47;5025969;28;20049;-71
2022/11/06 09:38:25;;;;;;;9.70;4.78;;;;;;;13.55;64.68;101091.09;5019432;28;20053;-71
2022/11/06 09:40:55;;;;;;;7.55;4.10;;;;;;;13.58;63.65;101079.53;5016831;28;20049;-66
2022/11/06 09:43:31;;;;;;;8.35;3.88;;;;;;;13.20;65.93;101084.38;5039638;28;20124;-66
2022/11/06 09:46:05;;;;;;;9.52;4.03;;;;;;;13.85;63.44;101091.06;5017948;28;20168;-66
2022/11/06 09:48:36;;;;;;;11.90;4.10;;;;;;;13.72;63.44;101079.56;5029061;28;20114;-66
2022/11/06 09:51:15;;;;;;;8.95;4.05;;;;;;;13.83;62.81;101089.44;5030487;28;20045;-66
2022/11/06 09:53:47;;;;;;;9.40;4.05;;;;;;;13.83;63.17;101078.91;5029023;28;20053;-66
2022/11/06 09:56:17;;;;;;;6.63;3.45;;;;;;;13.80;62.69;101093.13;5030237;28;20060;-66
2022/11/06 09:58:44;;;;;;;6.90;3.65;;;;;;;14.78;61.76;101080.06;5020765;28;20044;-65
2022/11/06 10:01:17;;;;;;;13.23;4.88;;;;;;;14.81;59.41;101086.00;5028795;28;20049;-66
2022/11/06 10:03:49;;;;;;;8.48;3.63;;;;;;;14.07;61.58;101088.00;5019795;28;20041;-66
2022/11/06 10:06:17;;;;;;;8.32;3.67;;;;;;;14.87;61.66;101085.59;5029529;28;20053;-66
2022/11/06 10:08:44;;;;;;;7.35;3.63;;;;;;;15.97;56.76;101087.09;5029978;28;20503;-66
2022/11/06 10:11:30;;;;;;;7.13;3.47;;;;;;;16.60;55.20;101073.84;5020807;28;20519;-67
2022/11/06 10:14:05;;;;;;;6.05;3.50;;;;;;;16.58;55.23;101082.84;5030365;28;20056;-66
2022/11/06 10:16:41;;;;;;;5.78;3.50;;;;;;;15.82;57.53;101081.06;5020867;28;20041;-66
2022/11/06 10:19:15;;;;;;;8.25;4.20;;;;;;;15.93;57.58;101088.25;5029470;28;20060;-66
2022/11/06 10:21:48;;;;;;;6.45;3.83;;;;;;;15.44;57.65;101074.84;5019611;28;20045;-67
2022/11/06 10:24:23;;;;;;;5.22;3.22;;;;;;;13.94;61.62;101077.34;5028584;28;20071;-66
2022/11/06 10:26:54;;;;;;;4.75;2.92;;;;;;;14.88;61.73;101065.34;5020131;28;20049;-66
2022/11/06 10:29:40;;;;;;;11.52;3.20;;;;;;;15.63;58.15;101077.13;5030092;28;20052;-65
2022/11/06 10:32:30;;;;;;;6.72;3.40;;;;;;;16.06;56.23;101066.16;5019488;28;20095;-65
2022/11/06 10:35:02;;;;;;;7.00;3.10;;;;;;;15.46;58.81;101067.63;5027515;28;20056;-66
2022/11/06 10:37:35;;;;;;;9.40;3.28;;;;;;;15.62;57.98;101070.13;5007206;28;20504;-66
2022/11/06 10:40:04;;;;;;;6.30;2.70;;;;;;;15.52;57.33;101064.63;5028206;28;20516;-66
2022/11/06 10:42:36;;;;;;;6.78;2.55;;;;;;;14.82;58.60;101060.47;5029720;28;20047;-66
2022/11/06 10:45:04;;;;;;;9.00;3.20;;;;;;;14.34;59.30;101059.94;5030628;28;20041;-65
2022/11/06 10:47:34;;;;;;;5.50;2.50;;;;;;;14.20;60.15;101064.34;5027399;28;20041;-65
2022/11/06 10:50:03;;;;;;;10.07;3.08;;;;;;;14.28;60.53;101044.47;5018768;28;20049;-65
2022/11/06 10:52:52;;;;;;;4.65;2.50;;;;;;;14.44;59.45;101032.06;5028607;28;20064;-65
2022/11/06 10:55:47;;;;;;;5.55;2.28;;;;;;;14.55;58.92;101028.75;5019836;28;20041;-65
2022/11/06 10:58:17;;;;;;;8.88;2.78;;;;;;;13.58;60.94;101032.09;5026188;28;20404;-65
2022/11/06 11:00:43;;;;;;;5.30;2.28;;;;;;;13.96;61.53;101020.09;5029401;28;20061;-66
2022/11/06 11:03:19;;;;;;;6.65;2.40;;;;;;;13.95;60.98;101014.91;5029190;28;20045;-66
2022/11/06 11:05:46;;;;;;;6.18;2.80;;;;;;;14.13;59.48;101005.88;5000227;28;20081;-66
2022/11/06 11:08:40;;;;;;;5.60;2.15;;;;;;;14.26;61.24;101005.97;5025210;28;20052;-66
2022/11/06 11:11:18;;;;;;;7.53;2.45;;;;;;;14.46;58.56;101013.47;5004466;28;20053;-66
2022/11/06 11:13:47;;;;;;;5.72;2.25;;;;;;;14.61;60.87;101002.81;5019838;28;20048;-66
2022/11/06 11:16:17;;;;;;;6.85;2.20;;;;;;;14.64;59.92;101004.38;5019131;28;20057;-66
2022/11/06 11:18:44;;;;;;;5.70;2.40;;;;;;;13.94;60.09;101005.31;5028767;28;20459;-66
2022/11/06 11:21:24;;;;;;;6.07;2.30;;;;;;;13.54;60.57;100996.31;5027042;28;20049;-66
2022/11/06 11:24:09;;;;;;;6.05;1.95;;;;;;;13.99;59.95;101008.50;5020396;28;20446;-67
2022/11/06 11:26:38;;;;;;;6.47;2.00;;;;;;;14.17;59.49;100996.81;5028782;28;20048;-66
2022/11/06 11:29:13;;;;;;;5.65;2.33;;;;;;;13.82;58.90;101001.63;5029137;28;20496;-66
2022/11/06 11:31:40;;;;;;;5.57;2.28;;;;;;;13.85;60.19;100990.06;5028601;28;20064;-66
2022/11/06 11:34:16;;;;;;;8.65;1.88;;;;;;;14.25;60.06;100994.56;5019428;28;20075;-66
2022/11/06 11:36:56;;;;;;;4.95;1.90;;;;;;;13.85;59.75;100995.34;5027915;28;20056;-66
2022/11/06 11:39:29;;;;;;;8.27;2.72;;;;;;;14.02;59.38;100992.50;5015681;28;20040;-66
2022/11/06 11:42:16;;;;;;;5.03;1.88;;;;;;;14.26;61.30;100987.50;5027736;28;20052;-67
2022/11/06 11:44:42;;;;;;;6.45;2.22;;;;;;;14.23;58.30;100987.69;5019103;28;20036;-66
2022/11/06 11:47:21;;;;;;;7.70;2.35;;;;;;;14.32;59.47;100985.31;5028621;28;20052;-66
2022/11/06 11:49:47;;;;;;;5.78;2.08;;;;;;;14.20;60.43;100980.81;5017763;28;20041;-66
2022/11/06 11:52:19;;;;;;;4.07;2.08;;;;;;;14.68;59.20;100979.50;5028947;28;20049;-67